sensor_id;sensor_type;location;lat;lon;timestamp;pressure;altitude;pressure_sealevel;temperature;humidity
72950;BME280;64868;45.710;9.590;2023-04-20T00:02:25;98544.84;;;12.73;78.51
72950;BME280;64868;45.710;9.590;2023-04-20T00:04:58;98542.81;;;12.65;80.14
72950;BME280;64868;45.710;9.590;2023-04-20T00:07:30;98528.34;;;12.54;80.13
72950;BME280;64868;45.710;9.590;2023-04-20T00:10:03;98487.66;;;12.30;78.49
72950;BME280;64868;45.710;9.590;2023-04-20T00:12:36;98535.69;;;12.53;78.85
72950;BME280;64868;45.710;9.590;2023-04-20T00:15:06;98534.31;;;12.38;79.77
72950;BME280;64868;45.710;9.590;2023-04-20T00:17:38;98522.84;;;12.23;80.31
72950;BME280;64868;45.710;9.590;2023-04-20T00:20:11;98499.16;;;12.24;79.12
72950;BME280;64868;45.710;9.590;2023-04-20T00:22:39;98496.56;;;12.01;79.40
72950;BME280;64868;45.710;9.590;2023-04-20T00:25:12;98514.72;;;12.12;80.12
72950;BME280;64868;45.710;9.590;2023-04-20T00:27:39;98465.31;;;11.94;81.11
72950;BME280;64868;45.710;9.590;2023-04-20T00:30:12;98512.06;;;12.22;79.73
72950;BME280;64868;45.710;9.590;2023-04-20T00:32:42;98502.59;;;12.26;79.62
72950;BME280;64868;45.710;9.590;2023-04-20T00:35:14;98474.88;;;12.09;79.11
72950;BME280;64868;45.710;9.590;2023-04-20T00:37:47;98471.81;;;12.03;80.51
72950;BME280;64868;45.710;9.590;2023-04-20T00:40:17;98485.75;;;12.00;80.11
72950;BME280;64868;45.710;9.590;2023-04-20T00:42:50;98505.03;;;11.98;78.41
72950;BME280;64868;45.710;9.590;2023-04-20T00:45:22;98492.28;;;11.87;80.47
72950;BME280;64868;45.710;9.590;2023-04-20T00:47:52;98466.63;;;12.00;79.67
72950;BME280;64868;45.710;9.590;2023-04-20T00:50:22;98477.66;;;12.19;79.39
72950;BME280;64868;45.710;9.590;2023-04-20T00:52:55;98480.00;;;12.24;78.70
72950;BME280;64868;45.710;9.590;2023-04-20T00:55:27;98444.31;;;11.95;80.19
72950;BME280;64868;45.710;9.590;2023-04-20T00:57:56;98464.16;;;11.97;80.60
72950;BME280;64868;45.710;9.590;2023-04-20T01:00:26;98461.38;;;11.87;80.31
72950;BME280;64868;45.710;9.590;2023-04-20T01:02:59;98454.22;;;11.75;79.80
72950;BME280;64868;45.710;9.590;2023-04-20T01:05:31;98477.53;;;11.79;79.73
72950;BME280;64868;45.710;9.590;2023-04-20T01:08:01;98453.53;;;11.61;81.28
72950;BME280;64868;45.710;9.590;2023-04-20T01:10:29;98476.50;;;11.91;81.25
72950;BME280;64868;45.710;9.590;2023-04-20T01:12:59;98463.44;;;11.95;80.03
72950;BME280;64868;45.710;9.590;2023-04-20T01:15:32;98470.88;;;12.13;79.19
72950;BME280;64868;45.710;9.590;2023-04-20T01:18:04;98445.31;;;11.93;79.03
72950;BME280;64868;45.710;9.590;2023-04-20T01:20:37;98442.13;;;11.88;78.94
72950;BME280;64868;45.710;9.590;2023-04-20T01:23:10;98444.78;;;11.79;80.18
72950;BME280;64868;45.710;9.590;2023-04-20T01:25:42;98430.31;;;11.46;80.55
72950;BME280;64868;45.710;9.590;2023-04-20T01:28:15;98416.44;;;11.59;79.71
72950;BME280;64868;45.710;9.590;2023-04-20T01:30:45;98422.91;;;11.79;78.44
72950;BME280;64868;45.710;9.590;2023-04-20T01:33:18;98420.88;;;11.71;80.33
72950;BME280;64868;45.710;9.590;2023-04-20T01:35:46;98411.91;;;11.69;80.54
72950;BME280;64868;45.710;9.590;2023-04-20T01:38:22;98411.06;;;11.68;80.95
72950;BME280;64868;45.710;9.590;2023-04-20T01:40:55;98414.53;;;11.71;80.07
72950;BME280;64868;45.710;9.590;2023-04-20T01:43:29;98410.91;;;11.70;79.81
72950;BME280;64868;45.710;9.590;2023-04-20T01:46:02;98410.53;;;11.75;79.31
72950;BME280;64868;45.710;9.590;2023-04-20T01:48:32;98394.59;;;11.59;78.50
72950;BME280;64868;45.710;9.590;2023-04-20T01:51:04;98414.81;;;11.67;78.02
72950;BME280;64868;45.710;9.590;2023-04-20T01:53:37;98393.75;;;11.58;77.36
72950;BME280;64868;45.710;9.590;2023-04-20T01:56:10;98408.13;;;11.60;78.30
72950;BME280;64868;45.710;9.590;2023-04-20T01:58:42;98380.31;;;11.45;77.45
72950;BME280;64868;45.710;9.590;2023-04-20T02:01:15;98389.88;;;11.61;77.88
72950;BME280;64868;45.710;9.590;2023-04-20T02:03:40;98367.97;;;11.51;77.78
72950;BME280;64868;45.710;9.590;2023-04-20T02:06:13;98371.09;;;11.47;77.62
72950;BME280;64868;45.710;9.590;2023-04-20T02:08:43;98373.84;;;11.47;77.36
72950;BME280;64868;45.710;9.590;2023-04-20T02:11:13;98346.16;;;11.30;78.16
72950;BME280;64868;45.710;9.590;2023-04-20T02:13:45;98375.03;;;11.54;77.27
72950;BME280;64868;45.710;9.590;2023-04-20T02:16:16;98376.97;;;11.42;78.02
72950;BME280;64868;45.710;9.590;2023-04-20T02:18:45;98366.31;;;11.39;78.48
72950;BME280;64868;45.710;9.590;2023-04-20T02:21:15;98386.94;;;11.32;80.27
72950;BME280;64868;45.710;9.590;2023-04-20T02:23:43;98376.84;;;11.23;78.89
72950;BME280;64868;45.710;9.590;2023-04-20T02:26:13;98387.44;;;11.37;79.62
72950;BME280;64868;45.710;9.590;2023-04-20T02:28:45;98390.28;;;11.35;79.46
72950;BME280;64868;45.710;9.590;2023-04-20T02:31:16;98386.28;;;11.18;79.90
72950;BME280;64868;45.710;9.590;2023-04-20T02:33:46;98390.59;;;11.21;80.14
72950;BME280;64868;45.710;9.590;2023-04-20T02:36:19;98391.75;;;11.18;79.25
72950;BME280;64868;45.710;9.590;2023-04-20T02:38:46;98400.94;;;11.17;80.32
72950;BME280;64868;45.710;9.590;2023-04-20T02:41:19;98385.72;;;11.04;78.16
72950;BME280;64868;45.710;9.590;2023-04-20T02:43:51;98380.38;;;11.02;78.94
72950;BME280;64868;45.710;9.590;2023-04-20T02:46:24;98374.47;;;10.97;80.52
72950;BME280;64868;45.710;9.590;2023-04-20T02:48:57;98381.53;;;11.00;81.86
72950;BME280;64868;45.710;9.590;2023-04-20T02:51:29;98387.47;;;11.05;83.65
72950;BME280;64868;45.710;9.590;2023-04-20T02:53:59;98371.19;;;11.14;83.03
72950;BME280;64868;45.710;9.590;2023-04-20T02:56:32;98375.78;;;11.35;82.57
72950;BME280;64868;45.710;9.590;2023-04-20T02:59:03;98374.47;;;11.29;82.16
72950;BME280;64868;45.710;9.590;2023-04-20T03:01:35;98365.22;;;11.09;82.85
72950;BME280;64868;45.710;9.590;2023-04-20T03:04:07;98356.25;;;10.98;83.79
72950;BME280;64868;45.710;9.590;2023-04-20T03:06:40;98387.19;;;11.08;83.43
72950;BME280;64868;45.710;9.590;2023-04-20T03:09:13;98371.03;;;10.95;83.67
72950;BME280;64868;45.710;9.590;2023-04-20T03:11:46;98388.84;;;10.99;82.73
72950;BME280;64868;45.710;9.590;2023-04-20T03:14:15;98369.53;;;10.91;83.30
72950;BME280;64868;45.710;9.590;2023-04-20T03:16:43;98380.38;;;11.02;84.22
72950;BME280;64868;45.710;9.590;2023-04-20T03:19:11;98402.72;;;11.07;83.22
72950;BME280;64868;45.710;9.590;2023-04-20T03:21:41;98399.56;;;11.12;84.05
72950;BME280;64868;45.710;9.590;2023-04-20T03:24:13;98390.31;;;11.03;82.49
72950;BME280;64868;45.710;9.590;2023-04-20T03:26:46;98409.41;;;11.03;83.25
72950;BME280;64868;45.710;9.590;2023-04-20T03:29:19;98397.03;;;10.99;82.00
72950;BME280;64868;45.710;9.590;2023-04-20T03:31:51;98405.19;;;11.10;82.10
72950;BME280;64868;45.710;9.590;2023-04-20T03:34:24;98402.97;;;11.04;83.21
72950;BME280;64868;45.710;9.590;2023-04-20T03:36:55;98391.44;;;11.01;82.72
72950;BME280;64868;45.710;9.590;2023-04-20T03:39:28;98384.47;;;11.08;82.59
72950;BME280;64868;45.710;9.590;2023-04-20T03:42:01;98373.00;;;11.25;81.48
72950;BME280;64868;45.710;9.590;2023-04-20T03:44:33;98374.84;;;11.45;81.33
72950;BME280;64868;45.710;9.590;2023-04-20T03:47:06;98350.94;;;11.38;79.93
72950;BME280;64868;45.710;9.590;2023-04-20T03:49:39;98374.31;;;11.52;80.20
72950;BME280;64868;45.710;9.590;2023-04-20T03:52:11;98340.28;;;11.35;79.02
72950;BME280;64868;45.710;9.590;2023-04-20T03:54:44;98387.59;;;11.66;79.83
72950;BME280;64868;45.710;9.590;2023-04-20T03:57:17;98373.09;;;11.65;79.01
72950;BME280;64868;45.710;9.590;2023-04-20T03:59:47;98382.81;;;11.58;77.26
72950;BME280;64868;45.710;9.590;2023-04-20T04:02:19;98391.00;;;11.58;77.88
72950;BME280;64868;45.710;9.590;2023-04-20T04:04:49;98396.03;;;11.53;77.79
72950;BME280;64868;45.710;9.590;2023-04-20T04:07:22;98394.09;;;11.44;77.91
72950;BME280;64868;45.710;9.590;2023-04-20T04:09:54;98381.63;;;11.51;77.94
72950;BME280;64868;45.710;9.590;2023-04-20T04:12:27;98383.41;;;11.62;77.30
72950;BME280;64868;45.710;9.590;2023-04-20T04:14:55;98380.84;;;11.60;78.51
72950;BME280;64868;45.710;9.590;2023-04-20T04:17:25;98420.91;;;11.81;78.76
72950;BME280;64868;45.710;9.590;2023-04-20T04:19:55;98412.34;;;11.85;77.46
72950;BME280;64868;45.710;9.590;2023-04-20T04:22:25;98406.38;;;11.80;78.83
72950;BME280;64868;45.710;9.590;2023-04-20T04:24:53;98410.19;;;11.89;77.50
72950;BME280;64868;45.710;9.590;2023-04-20T04:27:23;98368.97;;;11.50;77.90
72950;BME280;64868;45.710;9.590;2023-04-20T04:29:49;98401.16;;;11.67;79.37
72950;BME280;64868;45.710;9.590;2023-04-20T04:32:21;98390.56;;;11.53;78.47
72950;BME280;64868;45.710;9.590;2023-04-20T04:34:51;98421.44;;;11.54;78.67
72950;BME280;64868;45.710;9.590;2023-04-20T04:37:21;98411.09;;;11.36;79.80
72950;BME280;64868;45.710;9.590;2023-04-20T04:39:51;98391.44;;;11.33;80.11
72950;BME280;64868;45.710;9.590;2023-04-20T04:42:24;98408.72;;;11.43;79.52
72950;BME280;64868;45.710;9.590;2023-04-20T04:44:56;98426.31;;;11.50;79.88
72950;BME280;64868;45.710;9.590;2023-04-20T04:47:27;98419.13;;;11.49;79.23
72950;BME280;64868;45.710;9.590;2023-04-20T04:50:01;98409.72;;;11.63;79.76
72950;BME280;64868;45.710;9.590;2023-04-20T04:52:32;98417.44;;;11.58;78.82
72950;BME280;64868;45.710;9.590;2023-04-20T04:55:02;98401.06;;;11.58;79.05
72950;BME280;64868;45.710;9.590;2023-04-20T04:57:34;98411.69;;;11.82;77.93
72950;BME280;64868;45.710;9.590;2023-04-20T05:00:05;98423.41;;;11.84;77.53
72950;BME280;64868;45.710;9.590;2023-04-20T05:02:38;98420.97;;;11.69;78.61
72950;BME280;64868;45.710;9.590;2023-04-20T05:05:08;98430.38;;;11.56;79.20
72950;BME280;64868;45.710;9.590;2023-04-20T05:07:38;98356.06;;;11.10;80.34
72950;BME280;64868;45.710;9.590;2023-04-20T05:10:11;98431.75;;;11.50;80.82
72950;BME280;64868;45.710;9.590;2023-04-20T05:12:44;98402.06;;;11.36;81.00
72950;BME280;64868;45.710;9.590;2023-04-20T05:15:14;98353.41;;;10.99;80.73
72950;BME280;64868;45.710;9.590;2023-04-20T05:17:46;98362.84;;;10.95;81.58
72950;BME280;64868;45.710;9.590;2023-04-20T05:20:17;98411.66;;;11.30;81.29
72950;BME280;64868;45.710;9.590;2023-04-20T05:22:48;98427.81;;;11.43;81.67
72950;BME280;64868;45.710;9.590;2023-04-20T05:25:20;98407.81;;;11.33;82.95
72950;BME280;64868;45.710;9.590;2023-04-20T05:27:51;98385.28;;;11.19;82.66
72950;BME280;64868;45.710;9.590;2023-04-20T05:30:19;98387.59;;;11.24;82.13
72950;BME280;64868;45.710;9.590;2023-04-20T05:32:46;98425.25;;;11.41;81.32
72950;BME280;64868;45.710;9.590;2023-04-20T05:35:16;98425.25;;;11.41;82.55
72950;BME280;64868;45.710;9.590;2023-04-20T05:37:49;98399.00;;;11.50;81.29
72950;BME280;64868;45.710;9.590;2023-04-20T05:40:16;98423.91;;;11.78;80.48
72950;BME280;64868;45.710;9.590;2023-04-20T05:42:49;98386.28;;;11.60;80.68
72950;BME280;64868;45.710;9.590;2023-04-20T05:45:17;98420.00;;;11.91;79.69
72950;BME280;64868;45.710;9.590;2023-04-20T05:47:58;98432.13;;;11.99;79.73
72950;BME280;64868;45.710;9.590;2023-04-20T05:50:28;98434.00;;;11.98;79.71
72950;BME280;64868;45.710;9.590;2023-04-20T05:53:00;98412.22;;;11.87;81.00
72950;BME280;64868;45.710;9.590;2023-04-20T05:55:33;98410.34;;;11.87;80.26
72950;BME280;64868;45.710;9.590;2023-04-20T05:58:03;98386.63;;;11.67;81.23
72950;BME280;64868;45.710;9.590;2023-04-20T06:00:36;98407.34;;;11.90;79.76
72950;BME280;64868;45.710;9.590;2023-04-20T06:03:08;98421.69;;;12.13;79.98
72950;BME280;64868;45.710;9.590;2023-04-20T06:05:36;98393.47;;;12.03;79.57
72950;BME280;64868;45.710;9.590;2023-04-20T06:08:06;98383.19;;;12.16;77.71
72950;BME280;64868;45.710;9.590;2023-04-20T06:10:37;98419.66;;;12.46;77.79
72950;BME280;64868;45.710;9.590;2023-04-20T06:13:08;98423.44;;;12.55;78.14
72950;BME280;64868;45.710;9.590;2023-04-20T06:15:38;98399.06;;;12.42;77.77
72950;BME280;64868;45.710;9.590;2023-04-20T06:18:08;98405.88;;;12.48;77.69
72950;BME280;64868;45.710;9.590;2023-04-20T06:20:39;98432.13;;;12.70;77.23
72950;BME280;64868;45.710;9.590;2023-04-20T06:23:09;98433.56;;;12.74;77.67
72950;BME280;64868;45.710;9.590;2023-04-20T06:25:41;98399.16;;;12.71;75.87
72950;BME280;64868;45.710;9.590;2023-04-20T06:28:12;98434.78;;;13.10;74.78
72950;BME280;64868;45.710;9.590;2023-04-20T06:30:44;98423.00;;;13.29;75.06
72950;BME280;64868;45.710;9.590;2023-04-20T06:33:14;98365.06;;;13.04;73.99
72950;BME280;64868;45.710;9.590;2023-04-20T06:35:47;98420.00;;;13.32;73.13
72950;BME280;64868;45.710;9.590;2023-04-20T06:38:20;98431.69;;;13.34;73.04
72950;BME280;64868;45.710;9.590;2023-04-20T06:40:52;98413.50;;;13.23;74.37
72950;BME280;64868;45.710;9.590;2023-04-20T06:43:25;98428.63;;;13.66;72.99
72950;BME280;64868;45.710;9.590;2023-04-20T06:45:58;98420.97;;;13.79;70.76
72950;BME280;64868;45.710;9.590;2023-04-20T06:48:30;98414.44;;;13.90;71.31
72950;BME280;64868;45.710;9.590;2023-04-20T06:51:03;98398.00;;;13.90;69.83
72950;BME280;64868;45.710;9.590;2023-04-20T06:53:36;98416.72;;;14.04;69.46
72950;BME280;64868;45.710;9.590;2023-04-20T06:56:08;98402.31;;;13.93;65.32
72950;BME280;64868;45.710;9.590;2023-04-20T06:58:38;98425.66;;;14.06;66.02
72950;BME280;64868;45.710;9.590;2023-04-20T07:01:08;98360.13;;;13.76;66.24
72950;BME280;64868;45.710;9.590;2023-04-20T07:03:39;98376.13;;;13.71;63.18
72950;BME280;64868;45.710;9.590;2023-04-20T07:06:09;98426.69;;;13.96;63.45
72950;BME280;64868;45.710;9.590;2023-04-20T07:08:40;98404.28;;;13.53;63.88
72950;BME280;64868;45.710;9.590;2023-04-20T07:11:08;98406.13;;;13.62;63.88
72950;BME280;64868;45.710;9.590;2023-04-20T07:13:36;98363.72;;;13.67;63.66
72950;BME280;64868;45.710;9.590;2023-04-20T07:16:08;98384.09;;;13.54;63.94
72950;BME280;64868;45.710;9.590;2023-04-20T07:18:41;98412.53;;;14.10;63.64
72950;BME280;64868;45.710;9.590;2023-04-20T07:21:11;98411.63;;;14.56;60.69
72950;BME280;64868;45.710;9.590;2023-04-20T07:23:44;98406.44;;;14.81;59.44
72950;BME280;64868;45.710;9.590;2023-04-20T07:26:20;98419.03;;;15.01;60.14
72950;BME280;64868;45.710;9.590;2023-04-20T07:28:50;98426.66;;;14.80;60.03
72950;BME280;64868;45.710;9.590;2023-04-20T07:31:18;98304.22;;;13.96;61.47
72950;BME280;64868;45.710;9.590;2023-04-20T07:33:46;98430.03;;;14.74;60.80
72950;BME280;64868;45.710;9.590;2023-04-20T07:36:12;98417.94;;;14.29;63.33
72950;BME280;64868;45.710;9.590;2023-04-20T07:38:39;98318.28;;;13.07;65.59
72950;BME280;64868;45.710;9.590;2023-04-20T07:41:10;98301.81;;;12.49;67.67
72950;BME280;64868;45.710;9.590;2023-04-20T07:43:38;98290.16;;;12.57;66.26
72950;BME280;64868;45.710;9.590;2023-04-20T07:46:06;98257.16;;;12.20;66.41
72950;BME280;64868;45.710;9.590;2023-04-20T07:48:37;98402.66;;;12.93;67.76
72950;BME280;64868;45.710;9.590;2023-04-20T07:51:04;98338.50;;;12.37;67.14
72950;BME280;64868;45.710;9.590;2023-04-20T07:53:30;98291.41;;;12.14;66.58
72950;BME280;64868;45.710;9.590;2023-04-20T07:55:56;98463.50;;;12.75;68.49
72950;BME280;64868;45.710;9.590;2023-04-20T07:58:22;98265.22;;;11.40;70.48
72950;BME280;64868;45.710;9.590;2023-04-20T08:00:50;98371.75;;;11.81;70.19
72950;BME280;64868;45.710;9.590;2023-04-20T08:03:16;98296.44;;;11.27;70.53
72950;BME280;64868;45.710;9.590;2023-04-20T08:05:42;98402.19;;;11.76;70.79
72950;BME280;64868;45.710;9.590;2023-04-20T08:08:07;98384.56;;;11.59;71.95
72950;BME280;64868;45.710;9.590;2023-04-20T08:10:33;98390.16;;;11.58;73.54
72950;BME280;64868;45.710;9.590;2023-04-20T08:13:05;98357.19;;;11.29;74.45
72950;BME280;64868;45.710;9.590;2023-04-20T08:15:36;98476.25;;;11.94;74.46
72950;BME280;64868;45.710;9.590;2023-04-20T08:18:06;98473.94;;;11.78;76.49
72950;BME280;64868;45.710;9.590;2023-04-20T08:20:34;98488.97;;;11.73;77.58
72950;BME280;64868;45.710;9.590;2023-04-20T08:23:05;98494.50;;;11.61;77.76
72950;BME280;64868;45.710;9.590;2023-04-20T08:25:35;98476.19;;;11.20;78.42
72950;BME280;64868;45.710;9.590;2023-04-20T08:28:07;98500.25;;;11.26;80.00
72950;BME280;64868;45.710;9.590;2023-04-20T08:30:37;98487.53;;;11.04;82.53
72950;BME280;64868;45.710;9.590;2023-04-20T08:33:10;98486.91;;;11.01;80.80
72950;BME280;64868;45.710;9.590;2023-04-20T08:35:42;98504.03;;;11.03;81.95
72950;BME280;64868;45.710;9.590;2023-04-20T08:38:12;98501.91;;;11.06;82.09
72950;BME280;64868;45.710;9.590;2023-04-20T08:40:42;98470.94;;;10.96;82.98
72950;BME280;64868;45.710;9.590;2023-04-20T08:43:10;98490.63;;;11.00;83.79
72950;BME280;64868;45.710;9.590;2023-04-20T08:45:45;98496.56;;;11.05;83.56
72950;BME280;64868;45.710;9.590;2023-04-20T08:48:18;98473.06;;;10.92;82.78
72950;BME280;64868;45.710;9.590;2023-04-20T08:50:51;98471.03;;;10.94;82.66
72950;BME280;64868;45.710;9.590;2023-04-20T08:53:23;98454.72;;;10.83;82.66
72950;BME280;64868;45.710;9.590;2023-04-20T08:55:53;98441.44;;;10.90;81.95
72950;BME280;64868;45.710;9.590;2023-04-20T08:58:24;98499.91;;;11.08;82.79
72950;BME280;64868;45.710;9.590;2023-04-20T09:01:01;98466.09;;;11.00;82.41
72950;BME280;64868;45.710;9.590;2023-04-20T09:03:39;98495.13;;;11.33;82.39
72950;BME280;64868;45.710;9.590;2023-04-20T09:06:18;98491.28;;;11.24;80.99
72950;BME280;64868;45.710;9.590;2023-04-20T09:08:46;98419.25;;;10.83;81.11
72950;BME280;64868;45.710;9.590;2023-04-20T09:11:27;98518.09;;;11.30;81.19
72950;BME280;64868;45.710;9.590;2023-04-20T09:14:09;98499.44;;;11.35;81.85
72950;BME280;64868;45.710;9.590;2023-04-20T09:16:49;98478.88;;;11.31;81.28
72950;BME280;64868;45.710;9.590;2023-04-20T09:19:30;98504.50;;;11.40;81.36
72950;BME280;64868;45.710;9.590;2023-04-20T09:22:00;98504.78;;;11.37;80.72
72950;BME280;64868;45.710;9.590;2023-04-20T09:24:39;98511.06;;;11.05;81.55
72950;BME280;64868;45.710;9.590;2023-04-20T09:27:18;98454.91;;;10.48;83.11
72950;BME280;64868;45.710;9.590;2023-04-20T09:30:01;98535.66;;;10.83;83.58
72950;BME280;64868;45.710;9.590;2023-04-20T09:32:35;98516.97;;;10.56;84.20
72950;BME280;64868;45.710;9.590;2023-04-20T09:35:08;98499.63;;;10.45;84.37
72950;BME280;64868;45.710;9.590;2023-04-20T09:37:47;98506.56;;;10.61;83.78
72950;BME280;64868;45.710;9.590;2023-04-20T09:40:18;98530.34;;;10.70;84.76
72950;BME280;64868;45.710;9.590;2023-04-20T09:42:49;98531.44;;;10.79;84.92
72950;BME280;64868;45.710;9.590;2023-04-20T09:45:22;98509.88;;;10.64;85.02
72950;BME280;64868;45.710;9.590;2023-04-20T09:47:50;98495.28;;;10.77;83.97
72950;BME280;64868;45.710;9.590;2023-04-20T09:50:21;98507.25;;;10.96;82.60
72950;BME280;64868;45.710;9.590;2023-04-20T09:52:51;98512.59;;;10.87;82.47
72950;BME280;64868;45.710;9.590;2023-04-20T09:55:25;98491.50;;;11.00;82.33
72950;BME280;64868;45.710;9.590;2023-04-20T09:57:55;98500.63;;;11.22;81.89
72950;BME280;64868;45.710;9.590;2023-04-20T10:00:23;98502.25;;;11.13;82.07
72950;BME280;64868;45.710;9.590;2023-04-20T10:02:51;98527.91;;;11.54;81.14
72950;BME280;64868;45.710;9.590;2023-04-20T10:05:30;98529.66;;;11.55;80.43
72950;BME280;64868;45.710;9.590;2023-04-20T10:08:04;98520.13;;;11.70;80.17
72950;BME280;64868;45.710;9.590;2023-04-20T10:10:48;98528.00;;;11.63;79.79
72950;BME280;64868;45.710;9.590;2023-04-20T10:13:17;98514.13;;;11.55;79.08
72950;BME280;64868;45.710;9.590;2023-04-20T10:15:48;98516.75;;;11.57;78.78
72950;BME280;64868;45.710;9.590;2023-04-20T10:18:23;98491.34;;;11.45;79.66
72950;BME280;64868;45.710;9.590;2023-04-20T10:21:04;98541.06;;;11.81;78.09
72950;BME280;64868;45.710;9.590;2023-04-20T10:23:46;98493.91;;;11.58;77.89
72950;BME280;64868;45.710;9.590;2023-04-20T10:26:19;98458.59;;;11.45;77.94
72950;BME280;64868;45.710;9.590;2023-04-20T10:28:51;98508.69;;;11.87;77.64
72950;BME280;64868;45.710;9.590;2023-04-20T10:31:22;98452.78;;;11.71;77.92
72950;BME280;64868;45.710;9.590;2023-04-20T10:34:01;98489.03;;;11.93;76.63
72950;BME280;64868;45.710;9.590;2023-04-20T10:36:40;98503.16;;;11.99;78.73
72950;BME280;64868;45.710;9.590;2023-04-20T10:39:17;98507.00;;;11.96;79.18
72950;BME280;64868;45.710;9.590;2023-04-20T10:41:58;98448.09;;;11.61;77.83
72950;BME280;64868;45.710;9.590;2023-04-20T10:44:30;98468.44;;;11.89;77.78
72950;BME280;64868;45.710;9.590;2023-04-20T10:47:02;98436.81;;;11.87;75.52
72950;BME280;64868;45.710;9.590;2023-04-20T10:49:32;98450.63;;;12.16;74.20
72950;BME280;64868;45.710;9.590;2023-04-20T10:52:05;98437.59;;;12.29;74.02
72950;BME280;64868;45.710;9.590;2023-04-20T10:54:39;98487.31;;;12.84;74.11
72950;BME280;64868;45.710;9.590;2023-04-20T10:57:07;98475.78;;;12.81;72.04
72950;BME280;64868;45.710;9.590;2023-04-20T10:59:37;98473.78;;;12.93;73.05
72950;BME280;64868;45.710;9.590;2023-04-20T11:02:07;98476.53;;;13.02;71.55
72950;BME280;64868;45.710;9.590;2023-04-20T11:04:37;98427.63;;;12.69;72.57
72950;BME280;64868;45.710;9.590;2023-04-20T11:07:08;98443.13;;;12.89;70.65
72950;BME280;64868;45.710;9.590;2023-04-20T11:09:39;98466.59;;;13.01;69.36
72950;BME280;64868;45.710;9.590;2023-04-20T11:12:08;98447.28;;;12.93;70.88
72950;BME280;64868;45.710;9.590;2023-04-20T11:14:51;98440.81;;;12.94;70.86
72950;BME280;64868;45.710;9.590;2023-04-20T11:17:32;98449.81;;;13.35;69.32
72950;BME280;64868;45.710;9.590;2023-04-20T11:20:09;98441.75;;;13.53;68.13
72950;BME280;64868;45.710;9.590;2023-04-20T11:22:43;98431.38;;;13.56;67.04
72950;BME280;64868;45.710;9.590;2023-04-20T11:25:16;98412.34;;;13.35;67.50
72950;BME280;64868;45.710;9.590;2023-04-20T11:27:48;98422.88;;;13.50;67.96
72950;BME280;64868;45.710;9.590;2023-04-20T11:30:21;98406.16;;;13.43;67.47
72950;BME280;64868;45.710;9.590;2023-04-20T11:32:55;98447.19;;;13.82;67.29
72950;BME280;64868;45.710;9.590;2023-04-20T11:35:28;98388.84;;;13.52;67.83
72950;BME280;64868;45.710;9.590;2023-04-20T11:38:04;98418.25;;;13.60;67.79
72950;BME280;64868;45.710;9.590;2023-04-20T11:40:34;98427.88;;;13.83;67.77
72950;BME280;64868;45.710;9.590;2023-04-20T11:43:04;98424.38;;;14.01;66.88
72950;BME280;64868;45.710;9.590;2023-04-20T11:45:37;98406.41;;;14.16;65.40
72950;BME280;64868;45.710;9.590;2023-04-20T11:48:10;98414.56;;;14.35;65.06
72950;BME280;64868;45.710;9.590;2023-04-20T11:50:40;98394.63;;;14.43;65.99
72950;BME280;64868;45.710;9.590;2023-04-20T11:53:13;98421.47;;;14.49;64.73
72950;BME280;64868;45.710;9.590;2023-04-20T11:55:41;98407.09;;;14.28;64.39
72950;BME280;64868;45.710;9.590;2023-04-20T11:58:13;98404.19;;;13.92;64.79
72950;BME280;64868;45.710;9.590;2023-04-20T12:00:44;98416.03;;;13.93;64.13
72950;BME280;64868;45.710;9.590;2023-04-20T12:03:11;98402.81;;;13.59;63.56
72950;BME280;64868;45.710;9.590;2023-04-20T12:05:39;98377.91;;;13.04;63.33
72950;BME280;64868;45.710;9.590;2023-04-20T12:08:09;98391.84;;;13.01;65.13
72950;BME280;64868;45.710;9.590;2023-04-20T12:10:42;98414.44;;;12.74;67.45
72950;BME280;64868;45.710;9.590;2023-04-20T12:13:12;98410.38;;;12.68;66.71
72950;BME280;64868;45.710;9.590;2023-04-20T12:15:42;98410.59;;;12.46;68.82
72950;BME280;64868;45.710;9.590;2023-04-20T12:18:15;98402.22;;;12.37;68.15
72950;BME280;64868;45.710;9.590;2023-04-20T12:20:43;98345.38;;;11.91;69.04
72950;BME280;64868;45.710;9.590;2023-04-20T12:23:13;98396.84;;;12.26;69.69
72950;BME280;64868;45.710;9.590;2023-04-20T12:25:43;98379.38;;;12.08;69.63
72950;BME280;64868;45.710;9.590;2023-04-20T12:28:16;98407.09;;;12.24;70.59
72950;BME280;64868;45.710;9.590;2023-04-20T12:30:48;98387.63;;;12.17;69.96
72950;BME280;64868;45.710;9.590;2023-04-20T12:33:21;98410.94;;;12.22;70.81
72950;BME280;64868;45.710;9.590;2023-04-20T12:35:54;98376.19;;;12.03;69.21
72950;BME280;64868;45.710;9.590;2023-04-20T12:38:24;98393.19;;;12.06;70.25
72950;BME280;64868;45.710;9.590;2023-04-20T12:40:56;98362.78;;;11.90;71.85
72950;BME280;64868;45.710;9.590;2023-04-20T12:43:27;98368.97;;;11.92;70.27
72950;BME280;64868;45.710;9.590;2023-04-20T12:45:57;98399.38;;;12.08;69.51
72950;BME280;64868;45.710;9.590;2023-04-20T12:48:27;98399.78;;;12.04;71.04
72950;BME280;64868;45.710;9.590;2023-04-20T12:50:55;98378.88;;;11.93;69.25
72950;BME280;64868;45.710;9.590;2023-04-20T12:53:25;98406.31;;;12.12;70.75
72950;BME280;64868;45.710;9.590;2023-04-20T12:55:56;98410.88;;;12.12;nan
72950;BME280;64868;45.710;9.590;2023-04-20T12:58:28;98393.19;;;12.06;70.78
72950;BME280;64868;45.710;9.590;2023-04-20T13:00:59;98410.69;;;11.94;70.39
72950;BME280;64868;45.710;9.590;2023-04-20T13:03:29;98394.81;;;11.88;71.34
72950;BME280;64868;45.710;9.590;2023-04-20T13:06:02;98392.84;;;11.90;70.22
72950;BME280;64868;45.710;9.590;2023-04-20T13:08:34;98401.63;;;11.93;71.91
72950;BME280;64868;45.710;9.590;2023-04-20T13:11:03;98400.78;;;11.82;71.49
72950;BME280;64868;45.710;9.590;2023-04-20T13:13:36;98398.81;;;11.84;70.85
72950;BME280;64868;45.710;9.590;2023-04-20T13:16:08;98384.63;;;11.90;70.82
72950;BME280;64868;45.710;9.590;2023-04-20T13:18:41;98403.66;;;11.80;71.61
72950;BME280;64868;45.710;9.590;2023-04-20T13:21:09;98354.06;;;11.54;71.42
72950;BME280;64868;45.710;9.590;2023-04-20T13:23:39;98404.31;;;11.73;71.63